createdAt,value
2023-01-17T00:02:17.382Z,2.83
2023-01-17T00:04:48.179Z,2.91
2023-01-17T00:07:18.900Z,2.93
2023-01-17T00:09:49.678Z,2.94
2023-01-17T00:12:20.443Z,2.91
2023-01-17T00:14:51.248Z,2.94
2023-01-17T00:17:22.019Z,2.80
2023-01-17T00:19:52.832Z,2.69
2023-01-17T00:22:23.920Z,2.90
2023-01-17T00:24:54.455Z,2.90
2023-01-17T00:27:25.193Z,2.85
2023-01-17T00:29:55.993Z,2.80
2023-01-17T00:32:26.864Z,2.89
2023-01-17T00:34:57.581Z,2.62
2023-01-17T00:37:28.433Z,2.83
2023-01-17T00:39:59.116Z,2.78
2023-01-17T00:42:29.871Z,2.80
2023-01-17T00:45:00.688Z,2.95
2023-01-17T00:47:31.462Z,2.93
2023-01-17T00:50:02.308Z,2.86
2023-01-17T00:52:33.049Z,2.81
2023-01-17T00:55:03.799Z,2.76
2023-01-17T00:57:34.505Z,2.88
2023-01-17T01:00:05.288Z,2.81
2023-01-17T01:02:36.220Z,2.88
2023-01-17T01:05:06.843Z,2.82
2023-01-17T01:07:37.661Z,2.96
2023-01-17T01:10:08.405Z,2.93
2023-01-17T01:12:39.137Z,2.93
2023-01-17T01:15:09.928Z,2.96
2023-01-17T01:17:40.675Z,2.98
2023-01-17T01:20:11.584Z,2.92
2023-01-17T01:22:42.260Z,2.99
2023-01-17T01:25:13.034Z,3.04
2023-01-17T01:27:43.748Z,3.04
2023-01-17T01:30:14.546Z,3.07
2023-01-17T01:32:45.287Z,2.87
2023-01-17T01:35:16.080Z,2.96
2023-01-17T01:37:46.972Z,2.96
2023-01-17T01:40:17.653Z,2.87
2023-01-17T01:42:48.393Z,2.76
2023-01-17T01:45:19.191Z,2.91
2023-01-17T01:47:49.935Z,2.71
2023-01-17T01:50:20.727Z,2.89
2023-01-17T01:52:51.466Z,2.20
2023-01-17T01:55:22.327Z,2.27
2023-01-17T01:57:53.024Z,1.89
2023-01-17T02:00:23.881Z,2.07
2023-01-17T02:02:54.573Z,2.33
2023-01-17T02:05:25.356Z,2.13
2023-01-17T02:07:56.136Z,2.10
2023-01-17T02:10:26.945Z,2.28
2023-01-17T02:12:57.694Z,2.37
2023-01-17T02:15:28.501Z,2.02
2023-01-17T02:17:59.270Z,1.93
2023-01-17T02:20:30.161Z,1.53
2023-01-17T02:23:00.877Z,1.49
2023-01-17T02:25:31.709Z,1.77
2023-01-17T02:28:02.475Z,1.73
2023-01-17T02:30:33.489Z,1.59
2023-01-17T02:33:04.117Z,1.80
2023-01-17T02:35:35.095Z,1.74
2023-01-17T02:38:05.732Z,1.79
2023-01-17T02:40:36.600Z,1.41
2023-01-17T02:43:07.383Z,1.44
2023-01-17T02:45:38.295Z,1.77
2023-01-17T02:48:09.022Z,1.66
2023-01-17T02:50:39.869Z,1.47
2023-01-17T02:53:10.663Z,1.50
2023-01-17T02:55:41.585Z,1.54
2023-01-17T02:58:12.326Z,1.62
2023-01-17T03:00:43.298Z,1.61
2023-01-17T03:03:14.105Z,1.57
2023-01-17T03:05:44.833Z,1.39
2023-01-17T03:08:15.651Z,1.31
2023-01-17T03:10:46.531Z,1.45
2023-01-17T03:13:17.310Z,1.56
2023-01-17T03:15:48.148Z,1.52
2023-01-17T03:18:18.963Z,1.15
2023-01-17T03:20:49.800Z,1.30
2023-01-17T03:23:20.610Z,1.43
2023-01-17T03:25:51.473Z,1.52
2023-01-17T03:28:22.268Z,1.44
2023-01-17T03:30:53.154Z,1.28
2023-01-17T03:33:23.930Z,1.17
2023-01-17T03:35:54.803Z,1.19
2023-01-17T03:38:25.614Z,1.43
2023-01-17T03:40:56.489Z,1.39
2023-01-17T03:43:26.448Z,1.49
2023-01-17T03:45:57.383Z,1.52
2023-01-17T03:48:28.146Z,1.50
2023-01-17T03:50:59.011Z,1.49
2023-01-17T03:53:29.819Z,1.58
2023-01-17T03:56:00.697Z,1.50
2023-01-17T03:58:31.483Z,1.59
2023-01-17T04:01:02.562Z,1.57
2023-01-17T04:03:33.146Z,1.66
2023-01-17T04:06:03.970Z,1.60
2023-01-17T04:08:34.793Z,1.55
2023-01-17T04:11:05.652Z,1.49
2023-01-17T04:13:36.446Z,1.55
2023-01-17T04:16:07.304Z,1.53
2023-01-17T04:18:38.115Z,1.42
2023-01-17T04:21:08.974Z,1.50
2023-01-17T04:23:39.761Z,1.38
2023-01-17T04:26:10.608Z,1.50
2023-01-17T04:28:41.409Z,1.40
2023-01-17T04:31:12.371Z,1.39
2023-01-17T04:33:43.075Z,1.31
2023-01-17T04:36:13.995Z,1.44
2023-01-17T04:38:44.720Z,1.34
2023-01-17T04:41:15.091Z,1.66
2023-01-17T04:43:45.825Z,1.68
2023-01-17T04:46:16.803Z,1.64
2023-01-17T04:48:47.483Z,1.56
2023-01-17T04:51:18.406Z,1.52
2023-01-17T04:53:49.137Z,1.41
2023-01-17T04:56:20.017Z,1.34
2023-01-17T04:58:50.931Z,1.31
2023-01-17T05:01:21.797Z,1.29
2023-01-17T05:03:52.469Z,1.32
2023-01-17T05:06:23.318Z,1.28
2023-01-17T05:08:54.145Z,1.35
2023-01-17T05:11:25.006Z,1.46
2023-01-17T05:13:55.815Z,1.46
2023-01-17T05:16:26.785Z,1.51
2023-01-17T05:18:57.504Z,1.46
2023-01-17T05:21:28.335Z,1.44
2023-01-17T05:23:59.166Z,1.47
2023-01-17T05:26:30.053Z,1.52
2023-01-17T05:29:00.841Z,1.54
2023-01-17T05:31:31.682Z,1.50
2023-01-17T05:34:02.500Z,1.55
2023-01-17T05:36:33.471Z,1.54
2023-01-17T05:39:04.172Z,1.49
2023-01-17T05:41:35.043Z,1.58
2023-01-17T05:44:05.831Z,1.55
2023-01-17T05:46:36.722Z,1.56
2023-01-17T05:49:07.503Z,1.56
2023-01-17T05:51:38.356Z,1.51
2023-01-17T05:54:09.190Z,1.52
2023-01-17T05:56:40.063Z,1.46
2023-01-17T05:59:13.928Z,1.38
2023-01-17T06:01:41.694Z,1.36
2023-01-17T06:04:12.524Z,1.34
2023-01-17T06:06:43.347Z,1.40
2023-01-17T06:09:14.169Z,1.41
2023-01-17T06:11:45.075Z,1.33
2023-01-17T06:14:15.849Z,1.45
2023-01-17T06:16:46.708Z,1.40
2023-01-17T06:19:17.594Z,1.43
2023-01-17T06:21:48.385Z,1.49
2023-01-17T06:24:19.251Z,1.45
2023-01-17T06:26:50.049Z,1.44
2023-01-17T06:29:20.872Z,1.46
2023-01-17T06:31:51.738Z,1.48
2023-01-17T06:34:21.713Z,1.51
2023-01-17T06:36:52.582Z,1.49
2023-01-17T06:39:23.410Z,1.37
2023-01-17T06:41:54.292Z,1.30
2023-01-17T06:44:25.102Z,1.29
2023-01-17T06:46:56.002Z,1.32
2023-01-17T06:49:26.799Z,1.37
2023-01-17T06:51:57.644Z,1.28
2023-01-17T06:54:28.473Z,1.38
2023-01-17T06:56:59.360Z,1.39
2023-01-17T06:59:30.245Z,1.44
2023-01-17T07:02:01.021Z,1.47
2023-01-17T07:04:31.304Z,1.54
2023-01-17T07:07:02.140Z,1.44
2023-01-17T07:09:32.986Z,1.34
2023-01-17T07:12:03.815Z,1.12
2023-01-17T07:14:34.609Z,0.98
2023-01-17T07:17:05.518Z,0.79
2023-01-17T07:19:35.444Z,0.71
2023-01-17T07:22:06.303Z,0.65
2023-01-17T07:24:37.147Z,0.56
2023-01-17T07:27:08.148Z,0.49
2023-01-17T07:29:38.874Z,0.48
2023-01-17T07:32:09.750Z,0.51
2023-01-17T07:34:40.637Z,0.58
2023-01-17T07:37:13.626Z,0.64
2023-01-17T07:39:42.386Z,0.61
2023-01-17T07:42:13.245Z,0.67
2023-01-17T07:44:44.094Z,0.73
2023-01-17T07:47:14.938Z,0.77
2023-01-17T07:49:45.771Z,0.79
2023-01-17T07:52:18.239Z,0.67
2023-01-17T07:54:47.476Z,0.70
2023-01-17T07:57:18.372Z,0.83
2023-01-17T07:59:49.208Z,0.89
2023-01-17T08:02:20.054Z,0.94
2023-01-17T08:04:50.847Z,0.84
2023-01-17T08:07:21.728Z,0.85
2023-01-17T08:09:52.555Z,0.81
2023-01-17T08:12:23.391Z,0.85
2023-01-17T08:14:54.201Z,0.81
2023-01-17T08:17:25.077Z,0.81
2023-01-17T08:19:55.890Z,0.80
2023-01-17T08:22:26.763Z,0.84
2023-01-17T08:24:57.589Z,0.89
2023-01-17T08:27:28.527Z,0.83
2023-01-17T08:29:59.295Z,0.76
2023-01-17T08:32:30.155Z,0.75
2023-01-17T08:35:00.972Z,0.85
2023-01-17T08:37:31.879Z,0.85
2023-01-17T08:40:02.693Z,0.94
2023-01-17T08:42:33.504Z,1.05
2023-01-17T08:45:03.716Z,1.11
2023-01-17T08:47:34.586Z,1.08
2023-01-17T08:50:05.392Z,1.05
2023-01-17T08:52:36.288Z,0.90
2023-01-17T08:55:06.253Z,0.71
2023-01-17T08:57:37.142Z,0.64
2023-01-17T09:00:07.599Z,0.65
2023-01-17T09:02:37.651Z,0.68
2023-01-17T09:05:07.640Z,0.63
2023-01-17T09:07:38.519Z,0.66
2023-01-17T09:10:09.355Z,0.69
2023-01-17T09:12:39.911Z,0.68
2023-01-17T09:15:10.448Z,0.73
2023-01-17T09:17:40.468Z,0.81
2023-01-17T09:20:11.310Z,0.82
2023-01-17T09:22:42.172Z,0.94
2023-01-17T09:25:13.006Z,0.93
2023-01-17T09:27:43.930Z,1.03
2023-01-17T09:30:14.727Z,1.05
2023-01-17T09:32:45.200Z,1.13
2023-01-17T09:35:15.190Z,1.09
2023-01-17T09:37:45.214Z,1.15
2023-01-17T09:40:16.115Z,1.10
2023-01-17T09:42:46.913Z,1.10
2023-01-17T09:45:17.791Z,1.10
2023-01-17T09:47:48.584Z,1.21
2023-01-17T09:50:19.421Z,1.17
2023-01-17T09:52:50.266Z,1.28
2023-01-17T09:55:21.125Z,1.24
2023-01-17T09:57:52.009Z,1.41
2023-01-17T10:00:22.449Z,1.43
2023-01-17T10:02:52.595Z,1.58
2023-01-17T10:05:23.322Z,1.62
2023-01-17T10:07:53.308Z,1.65
2023-01-17T10:10:24.143Z,1.74
2023-01-17T10:12:54.690Z,1.75
2023-01-17T10:15:25.460Z,1.76
2023-01-17T10:17:56.045Z,1.79
2023-01-17T10:20:26.564Z,1.74
2023-01-17T10:22:57.413Z,1.80
2023-01-17T10:25:28.233Z,1.83
2023-01-17T10:27:59.119Z,1.86
2023-01-17T10:30:30.080Z,1.81
2023-01-17T10:33:00.782Z,1.91
2023-01-17T10:35:31.663Z,1.98
2023-01-17T10:38:02.374Z,1.99
2023-01-17T10:40:33.170Z,1.74
2023-01-17T10:43:04.024Z,1.89
2023-01-17T10:45:34.797Z,1.98
2023-01-17T10:48:05.628Z,1.91
2023-01-17T10:50:36.422Z,2.15
2023-01-17T10:53:07.248Z,2.15
2023-01-17T10:55:37.849Z,2.41
2023-01-17T10:58:08.704Z,2.41
2023-01-17T11:00:39.437Z,2.20
2023-01-17T11:03:10.271Z,2.04
2023-01-17T11:05:41.051Z,1.86
2023-01-17T11:08:11.889Z,1.73
2023-01-17T11:10:42.400Z,1.72
2023-01-17T11:13:13.246Z,1.43
2023-01-17T11:15:44.069Z,1.42
2023-01-17T11:18:14.916Z,1.50
2023-01-17T11:20:45.710Z,1.43
2023-01-17T11:23:16.560Z,1.54
2023-01-17T11:25:47.094Z,1.63
2023-01-17T11:28:17.963Z,1.65
2023-01-17T11:30:48.798Z,1.71
2023-01-17T11:33:19.602Z,1.72
2023-01-17T11:35:50.413Z,1.72
2023-01-17T11:38:21.271Z,1.80
2023-01-17T11:40:52.064Z,1.78
2023-01-17T11:43:22.932Z,1.86
2023-01-17T11:45:53.767Z,1.90
2023-01-17T11:48:24.552Z,1.97
2023-01-17T11:50:55.382Z,1.76
2023-01-17T11:53:26.191Z,1.82
2023-01-17T11:55:57.092Z,1.92
2023-01-17T11:58:27.876Z,1.95
2023-01-17T12:00:58.759Z,1.96
2023-01-17T12:03:29.545Z,1.93
2023-01-17T12:06:00.091Z,1.95
2023-01-17T12:08:30.790Z,1.95
2023-01-17T12:11:01.701Z,1.92
2023-01-17T12:13:32.464Z,1.92
2023-01-17T12:16:03.314Z,2.00
2023-01-17T12:18:34.126Z,1.99
2023-01-17T12:21:04.886Z,2.01
2023-01-17T12:23:35.711Z,2.04
2023-01-17T12:26:06.232Z,2.05
2023-01-17T12:28:37.092Z,2.06
2023-01-17T12:31:07.903Z,2.10
2023-01-17T12:33:38.698Z,2.14
2023-01-17T12:36:09.506Z,2.17
2023-01-17T12:38:40.333Z,2.21
2023-01-17T12:41:11.129Z,2.23
2023-01-17T12:43:41.979Z,2.22
2023-01-17T12:46:12.833Z,2.24
2023-01-17T12:48:43.662Z,2.24
2023-01-17T12:51:14.061Z,2.23
2023-01-17T12:53:44.889Z,2.28
2023-01-17T12:56:15.667Z,2.03
2023-01-17T12:58:46.532Z,2.18
2023-01-17T13:01:17.490Z,2.15
2023-01-17T13:03:48.124Z,2.14
2023-01-17T13:06:19.072Z,2.13
2023-01-17T13:08:49.737Z,2.07
2023-01-17T13:11:20.541Z,2.02
2023-01-17T13:13:51.436Z,1.83
2023-01-17T13:16:21.588Z,1.77
2023-01-17T13:18:51.903Z,1.97
2023-01-17T13:21:22.608Z,2.12
2023-01-17T13:23:53.437Z,2.26
2023-01-17T13:26:24.234Z,2.22
2023-01-17T13:28:55.126Z,2.13
2023-01-17T13:31:25.928Z,2.08
2023-01-17T13:33:56.422Z,2.00
2023-01-17T13:36:27.200Z,1.87
2023-01-17T13:38:58.048Z,1.86
2023-01-17T13:41:28.831Z,1.88
2023-01-17T13:43:59.336Z,1.74
2023-01-17T13:46:30.234Z,1.78
2023-01-17T13:49:00.961Z,1.82
2023-01-17T13:51:31.757Z,1.86
2023-01-17T13:54:05.164Z,1.91
2023-01-17T13:56:33.403Z,2.02
2023-01-17T13:59:04.242Z,2.07
2023-01-17T14:01:35.144Z,2.05
2023-01-17T14:04:05.905Z,2.15
2023-01-17T14:06:36.667Z,2.23
2023-01-17T14:09:07.535Z,2.19
2023-01-17T14:11:38.378Z,2.21
2023-01-17T14:14:09.124Z,2.26
2023-01-17T14:16:39.934Z,2.26
2023-01-17T14:19:10.742Z,2.37
2023-01-17T14:21:41.510Z,2.40
2023-01-17T14:24:12.368Z,2.40
2023-01-17T14:26:43.121Z,2.29
2023-01-17T14:29:14.050Z,2.35
2023-01-17T14:31:44.742Z,2.40
2023-01-17T14:34:15.520Z,2.41
2023-01-17T14:36:46.302Z,2.48
2023-01-17T14:39:17.118Z,2.38
2023-01-17T14:41:47.887Z,2.48
2023-01-17T14:44:18.717Z,2.53
2023-01-17T14:46:49.484Z,2.49
2023-01-17T14:49:20.305Z,2.49
2023-01-17T14:51:51.062Z,2.45
2023-01-17T14:54:21.885Z,2.47
2023-01-17T14:56:52.647Z,2.54
2023-01-17T14:59:23.500Z,2.43
2023-01-17T15:02:06.620Z,2.29
2023-01-17T15:04:25.041Z,2.43
2023-01-17T15:06:55.830Z,2.42
2023-01-17T15:09:26.815Z,2.35
2023-01-17T15:11:57.418Z,2.42
2023-01-17T15:14:28.309Z,2.40
2023-01-17T15:16:59.009Z,2.43
2023-01-17T15:19:29.838Z,2.42
2023-01-17T15:22:00.623Z,2.42
2023-01-17T15:24:31.421Z,2.38
2023-01-17T15:27:02.189Z,2.41
2023-01-17T15:29:33.064Z,2.43
2023-01-17T15:32:03.816Z,2.38
2023-01-17T15:34:34.613Z,2.41
2023-01-17T15:37:05.391Z,2.41
2023-01-17T15:39:36.200Z,2.42
2023-01-17T15:42:07.023Z,2.42
2023-01-17T15:44:48.381Z,2.35
2023-01-17T15:47:08.585Z,2.25
2023-01-17T15:49:39.406Z,2.12
2023-01-17T15:52:10.203Z,2.05
2023-01-17T15:54:41.022Z,2.00
2023-01-17T15:57:11.898Z,1.95
2023-01-17T15:59:42.621Z,1.92
2023-01-17T16:02:13.489Z,1.85
2023-01-17T16:04:44.225Z,1.85
2023-01-17T16:07:15.010Z,1.83
2023-01-17T16:09:45.952Z,1.84
2023-01-17T16:12:16.686Z,1.84
2023-01-17T16:15:06.286Z,1.84
2023-01-17T16:17:18.351Z,1.85
2023-01-17T16:19:49.118Z,1.88
2023-01-17T16:22:19.916Z,1.93
2023-01-17T16:24:50.739Z,1.94
2023-01-17T16:27:21.583Z,1.95
2023-01-17T16:29:52.465Z,1.94
2023-01-17T16:32:23.291Z,1.91
2023-01-17T16:34:54.060Z,1.91
2023-01-17T16:37:24.851Z,1.88
2023-01-17T16:39:55.697Z,1.86
2023-01-17T16:42:28.521Z,1.85
2023-01-17T16:44:57.503Z,1.84
2023-01-17T16:47:27.831Z,1.81
2023-01-17T16:49:57.922Z,1.81
2023-01-17T16:52:28.775Z,1.85
2023-01-17T16:54:59.051Z,1.91
2023-01-17T16:57:29.180Z,1.94
2023-01-17T17:00:00.138Z,1.76
2023-01-17T17:02:30.903Z,1.46
2023-01-17T17:05:01.764Z,1.21
2023-01-17T17:07:32.636Z,0.99
2023-01-17T17:10:02.779Z,0.81
2023-01-17T17:12:32.902Z,0.66
2023-01-17T17:15:03.828Z,0.52
2023-01-17T17:17:34.157Z,0.42
2023-01-17T17:20:04.333Z,0.38
2023-01-17T17:22:34.381Z,0.40
2023-01-17T17:25:04.509Z,0.43
2023-01-17T17:27:35.307Z,0.45
2023-01-17T17:30:06.202Z,0.43
2023-01-17T17:32:37.064Z,0.43
2023-01-17T17:35:07.957Z,0.44
2023-01-17T17:37:38.889Z,0.41
2023-01-17T17:40:09.387Z,0.41
2023-01-17T17:42:39.413Z,0.40
2023-01-17T17:45:09.556Z,0.45
2023-01-17T17:47:40.352Z,0.52
2023-01-17T17:50:10.630Z,0.68
2023-01-17T17:52:40.716Z,0.61
2023-01-17T17:55:11.580Z,0.43
2023-01-17T17:57:42.092Z,0.25
2023-01-17T18:00:12.208Z,0.03
2023-01-17T18:02:42.237Z,-0.05
2023-01-17T18:05:13.168Z,-0.13
2023-01-17T18:07:44.018Z,-0.29
2023-01-17T18:10:14.963Z,-0.33
2023-01-17T18:12:44.970Z,-0.35
2023-01-17T18:15:15.052Z,-0.39
2023-01-17T18:17:45.102Z,-0.39
2023-01-17T18:20:15.118Z,-0.32
2023-01-17T18:22:45.159Z,-0.25
2023-01-17T18:25:15.231Z,-0.21
2023-01-17T18:27:46.194Z,-0.24
2023-01-17T18:30:17.062Z,-0.23
2023-01-17T18:32:47.929Z,-0.22
2023-01-17T18:35:18.226Z,-0.24
2023-01-17T18:37:48.319Z,-0.23
2023-01-17T18:40:19.211Z,-0.25
2023-01-17T18:42:50.079Z,-0.27
2023-01-17T18:45:21.029Z,-0.30
2023-01-17T18:47:52.262Z,-0.32
2023-01-17T18:50:22.815Z,-0.35
2023-01-17T18:52:54.042Z,-0.38
2023-01-17T18:55:24.677Z,-0.35
2023-01-17T18:57:55.501Z,-0.37
2023-01-17T19:00:25.309Z,-0.31
2023-01-17T19:02:55.377Z,-0.36
2023-01-17T19:05:26.265Z,-0.29
2023-01-17T19:07:57.433Z,-0.24
2023-01-17T19:10:28.052Z,-0.20
2023-01-17T19:12:58.941Z,-0.14
2023-01-17T19:15:29.899Z,-0.14
2023-01-17T19:18:00.758Z,-0.11
2023-01-17T19:20:31.693Z,0.01
2023-01-17T19:23:02.590Z,0.10
2023-01-17T19:25:33.208Z,0.32
2023-01-17T19:28:03.240Z,0.30
2023-01-17T19:30:33.349Z,0.17
2023-01-17T19:33:03.315Z,-0.01
2023-01-17T19:35:33.414Z,-0.26
2023-01-17T19:38:03.483Z,-0.41
2023-01-17T19:40:33.526Z,-0.55
2023-01-17T19:43:03.612Z,-0.62
2023-01-17T19:45:33.911Z,-0.64
2023-01-17T19:48:03.718Z,-0.67
2023-01-17T19:50:33.831Z,-0.71
2023-01-17T19:53:04.495Z,-0.74
2023-01-17T19:55:34.647Z,-0.70
2023-01-17T19:58:04.614Z,-0.66
2023-01-17T20:00:45.877Z,-0.65
2023-01-17T20:03:04.789Z,-0.64
2023-01-17T20:05:34.883Z,-0.66
2023-01-17T20:08:05.636Z,-0.62
2023-01-17T20:10:35.613Z,-0.60
2023-01-17T20:13:05.644Z,-0.56
2023-01-17T20:15:35.770Z,-0.54
2023-01-17T20:18:06.425Z,-0.59
2023-01-17T20:20:46.044Z,-0.61
2023-01-17T20:23:07.076Z,-0.59
2023-01-17T20:25:37.105Z,-0.56
2023-01-17T20:28:07.805Z,-0.57
2023-01-17T20:30:37.916Z,-0.62
2023-01-17T20:33:07.902Z,-0.68
2023-01-17T20:35:38.584Z,-0.73
2023-01-17T20:38:08.681Z,-0.79
2023-01-17T20:40:38.752Z,-0.81
2023-01-17T20:43:08.845Z,-0.78
2023-01-17T20:45:39.117Z,-0.75
2023-01-17T20:48:09.005Z,-0.75
2023-01-17T20:50:39.143Z,-0.75
2023-01-17T20:53:09.813Z,-0.77
2023-01-17T20:55:39.901Z,-0.83
2023-01-17T20:58:09.979Z,-0.81
2023-01-17T21:00:40.726Z,-0.79
2023-01-17T21:03:11.363Z,-0.79
2023-01-17T21:05:41.459Z,-0.80
2023-01-17T21:08:11.983Z,-0.76
2023-01-17T21:10:42.475Z,-0.75
2023-01-17T21:13:13.050Z,-0.75
2023-01-17T21:15:43.054Z,-0.74
2023-01-17T21:18:13.446Z,-0.77
2023-01-17T21:20:44.077Z,-0.67
2023-01-17T21:23:14.173Z,-0.58
2023-01-17T21:25:44.535Z,-0.44
2023-01-17T21:28:14.971Z,-0.20
2023-01-17T21:30:45.590Z,-0.27
2023-01-17T21:33:15.656Z,-0.36
2023-01-17T21:35:45.802Z,-0.52
2023-01-17T21:38:15.865Z,-0.68
2023-01-17T21:40:46.022Z,-0.82
2023-01-17T21:43:16.071Z,-0.89
2023-01-17T21:45:46.712Z,-0.97
2023-01-17T21:48:17.375Z,-1.01
2023-01-17T21:50:47.531Z,-1.02
2023-01-17T21:53:18.124Z,-1.04
2023-01-17T21:55:48.266Z,-1.06
2023-01-17T21:58:18.375Z,-1.01
2023-01-17T22:00:49.104Z,-0.96
2023-01-17T22:03:19.224Z,-0.93
2023-01-17T22:05:49.252Z,-0.97
2023-01-17T22:08:19.378Z,-1.01
2023-01-17T22:10:49.410Z,-1.10
2023-01-17T22:13:19.506Z,-1.14
2023-01-17T22:15:50.205Z,-1.21
2023-01-17T22:18:20.370Z,-1.23
2023-01-17T22:20:50.588Z,-1.25
2023-01-17T22:23:21.244Z,-1.24
2023-01-17T22:25:51.373Z,-1.24
2023-01-17T22:28:21.963Z,-1.21
2023-01-17T22:30:52.310Z,-1.20
2023-01-17T22:33:22.166Z,-1.15
2023-01-17T22:35:52.226Z,-1.15
2023-01-17T22:38:22.774Z,-1.17
2023-01-17T22:40:52.796Z,-1.18
2023-01-17T22:43:23.406Z,-1.17
2023-01-17T22:45:53.527Z,-1.15
2023-01-17T22:48:23.534Z,-1.12
2023-01-17T22:50:53.642Z,-1.10
2023-01-17T22:53:23.779Z,-1.06
2023-01-17T22:55:54.021Z,-1.07
2023-01-17T22:58:23.885Z,-1.08
2023-01-17T23:00:54.802Z,-1.08
2023-01-17T23:03:25.288Z,-1.06
2023-01-17T23:05:55.374Z,-1.02
2023-01-17T23:08:25.526Z,-1.00
2023-01-17T23:10:55.547Z,-0.98
2023-01-17T23:13:26.270Z,-0.93
2023-01-17T23:15:56.999Z,-0.85
2023-01-17T23:18:26.929Z,-0.80
2023-01-17T23:20:57.064Z,-0.72
2023-01-17T23:23:27.995Z,-0.57
2023-01-17T23:25:58.015Z,-0.52
2023-01-17T23:28:28.602Z,-0.62
2023-01-17T23:30:58.914Z,-0.76
2023-01-17T23:33:29.302Z,-0.94
2023-01-17T23:35:59.986Z,-1.07
2023-01-17T23:38:30.081Z,-1.14
2023-01-17T23:41:00.148Z,-1.23
2023-01-17T23:43:30.243Z,-1.25
2023-01-17T23:46:00.422Z,-1.31
2023-01-17T23:48:30.423Z,-1.35
2023-01-17T23:51:01.127Z,-1.40
2023-01-17T23:53:31.512Z,-1.41
2023-01-17T23:56:01.872Z,-1.37
2023-01-17T23:58:32.019Z,-1.31
